Time;durP1;ratioP1;P1;durP2;ratioP2;P2;SDS_P1;SDS_P2;PMS_P1;PMS_P2;Temp;Humidity;BMP_temperature;BMP_pressure;BME280_temperature;BME280_humidity;BME280_pressure;Samples;Min_cycle;Max_cycle;Signal;HPM_P1;HPM_P2
2022/08/04 00:01:11;;;;;;;10.02;4.07;;;;;;;22.80;69.81;101153.09;6189136;23;20009;-82
2022/08/04 00:03:43;;;;;;;10.15;4.03;;;;;;;22.74;69.73;101156.56;6188956;23;20028;-81
2022/08/04 00:06:55;;;;;;;9.45;4.35;;;;;;;22.73;68.97;101146.75;6188931;23;20496;-81
2022/08/04 00:09:45;;;;;;;8.75;3.83;;;;;;;22.71;68.64;101146.09;6123193;23;20016;-81
2022/08/04 00:12:14;;;;;;;10.70;4.10;;;;;;;22.62;69.96;101149.97;6188879;23;20009;-81
2022/08/04 00:14:45;;;;;;;;;;;;;;;22.79;66.98;101137.88;6186540;23;20032;-81
2022/08/04 00:17:10;;;;;;;9.32;4.03;;;;;;;22.67;69.10;101134.81;6186279;23;19908;-81
2022/08/04 00:19:42;;;;;;;7.18;3.80;;;;;;;22.64;68.74;101143.31;6185885;23;20009;-81
2022/08/04 00:22:10;;;;;;;8.32;3.42;;;;;;;22.62;68.76;101134.56;6186126;23;20012;-80
2022/08/04 00:24:36;;;;;;;9.80;4.20;;;;;;;22.65;67.43;101138.72;6159235;23;20009;-81
2022/08/04 00:27:03;;;;;;;8.93;3.53;;;;;;;22.63;68.25;101130.81;6184435;23;20005;-80
2022/08/04 00:29:29;;;;;;;10.65;3.80;;;;;;;22.65;66.57;101131.47;6185251;23;20087;-80
2022/08/04 00:31:55;;;;;;;9.25;3.10;;;;;;;22.67;66.39;101137.53;6185797;23;20437;-81
2022/08/04 00:34:24;;;;;;;9.57;3.42;;;;;;;22.66;66.33;101135.00;6185582;23;20028;-81
2022/08/04 00:36:50;;;;;;;7.65;3.00;;;;;;;22.67;66.87;101128.56;6185875;23;20016;-81
2022/08/04 00:39:16;;;;;;;7.40;2.78;;;;;;;22.67;66.40;101124.00;6185554;23;20036;-80
2022/08/04 00:42:20;;;;;;;8.57;3.20;;;;;;;22.69;64.85;101121.91;6185616;23;20424;-80
2022/08/04 00:45:17;;;;;;;8.88;3.00;;;;;;;22.64;65.01;101124.38;6185948;23;20377;-80
2022/08/04 00:48:21;;;;;;;9.15;3.05;;;;;;;22.68;64.61;101122.09;6185519;23;20013;-80
2022/08/04 00:53:56;;;;;;;8.93;3.30;;;;;;;22.60;65.07;101122.22;6190370;23;20023;-75
2022/08/04 00:56:30;;;;;;;8.52;2.95;;;;;;;22.56;65.52;101120.94;6195508;23;20020;-77
2022/08/04 00:59:02;;;;;;;8.50;2.70;;;;;;;22.51;66.08;101111.50;6167857;23;20005;-77
2022/08/04 01:01:58;;;;;;;12.23;3.05;;;;;;;22.48;66.00;101111.03;6193775;23;20056;-77
2022/08/04 01:04:47;;;;;;;6.43;2.72;;;;;;;22.45;66.51;101115.00;6177952;23;20005;-77
2022/08/04 01:08:14;;;;;;;8.32;3.10;;;;;;;22.45;66.33;101116.84;6193284;23;20052;-78
2022/08/04 01:11:15;;;;;;;13.10;2.95;;;;;;;22.38;66.81;101107.81;6045941;23;20083;-78
2022/08/04 01:13:59;;;;;;;10.60;2.67;;;;;;;22.31;67.33;101105.00;6045751;23;20014;-78
2022/08/04 01:16:26;;;;;;;8.02;3.63;;;;;;;22.26;67.14;101102.00;6170205;23;20009;-78
2022/08/04 01:19:04;;;;;;;7.03;2.92;;;;;;;22.24;66.22;101094.06;6195226;23;20001;-78
2022/08/04 01:21:29;;;;;;;8.10;3.33;;;;;;;22.26;66.25;101089.31;6194288;23;20008;-78
2022/08/04 01:24:30;;;;;;;11.70;3.43;;;;;;;22.26;65.55;101099.28;6194576;23;20076;-78
2022/08/04 01:27:10;;;;;;;8.77;2.95;;;;;;;22.21;65.67;101088.22;6194039;23;20240;-78
2022/08/04 01:29:55;;;;;;;10.57;3.28;;;;;;;22.20;65.19;101090.09;6193935;23;20001;-77
2022/08/04 01:32:26;;;;;;;8.65;2.95;;;;;;;22.20;65.41;101086.50;6194784;23;20064;-78
2022/08/04 01:35:03;;;;;;;7.63;3.45;;;;;;;22.20;64.74;101084.66;6195062;23;20434;-78
2022/08/04 01:37:31;;;;;;;8.80;3.13;;;;;;;22.17;64.54;101085.88;6195229;23;20007;-79
2022/08/04 01:40:04;;;;;;;10.02;2.95;;;;;;;22.22;64.85;101087.19;6194369;23;20497;-78
2022/08/04 01:42:35;;;;;;;10.32;3.58;;;;;;;22.19;64.41;101082.97;6194473;23;20005;-78
2022/08/04 01:45:06;;;;;;;9.45;2.80;;;;;;;22.22;64.51;101082.59;6194806;23;20065;-77
2022/08/04 01:47:35;;;;;;;10.98;3.47;;;;;;;22.22;64.14;101074.50;6168616;23;20009;-77
2022/08/04 01:50:09;;;;;;;7.78;2.95;;;;;;;22.26;63.54;101080.34;6194804;23;20041;-78
2022/08/04 01:52:36;;;;;;;12.27;3.60;;;;;;;22.25;64.08;101082.25;6194599;23;20013;-78
2022/08/04 01:55:05;;;;;;;11.45;3.00;;;;;;;22.27;63.37;101080.16;6194227;23;20001;-78
2022/08/04 01:57:33;;;;;;;11.90;3.22;;;;;;;22.25;63.72;101068.72;6194115;23;20056;-78
2022/08/04 01:59:59;;;;;;;11.73;3.47;;;;;;;22.28;63.34;101076.47;6194251;23;20005;-78
2022/08/04 02:02:25;;;;;;;8.05;2.80;;;;;;;22.28;63.39;101075.59;6194067;23;20012;-79
2022/08/04 02:04:51;;;;;;;12.48;3.30;;;;;;;22.26;63.00;101067.66;6194719;23;20072;-78
2022/08/04 02:07:19;;;;;;;10.68;2.60;;;;;;;22.29;63.10;101075.44;6193633;23;20005;-77
2022/08/04 02:10:05;;;;;;;7.88;2.50;;;;;;;22.23;62.85;101059.09;6194344;23;20010;-78
2022/08/04 02:12:36;;;;;;;8.77;2.70;;;;;;;22.30;62.64;101069.00;6195430;23;20067;-77
2022/08/04 02:15:15;;;;;;;7.88;2.47;;;;;;;22.32;62.48;101058.00;6194429;23;20005;-79
2022/08/04 02:17:59;;;;;;;8.90;2.83;;;;;;;22.33;62.51;101068.63;6194568;23;20001;-78
2022/08/04 02:20:37;;;;;;;8.80;2.72;;;;;;;22.32;62.27;101058.81;6194915;23;20005;-78
2022/08/04 02:23:08;;;;;;;7.77;2.50;;;;;;;22.35;62.14;101052.22;6195159;23;20496;-78
2022/08/04 02:25:39;;;;;;;13.90;3.00;;;;;;;22.41;61.64;101062.25;6194480;23;20237;-78
2022/08/04 02:28:15;;;;;;;12.82;3.10;;;;;;;22.41;61.53;101048.72;6195513;23;20013;-78
2022/08/04 02:31:07;;;;;;;13.20;3.22;;;;;;;22.44;61.75;101052.94;6195409;23;20436;-78
2022/08/04 02:33:39;;;;;;;8.80;2.67;;;;;;;22.44;61.61;101056.47;6195069;23;20016;-78
2022/08/04 02:36:09;;;;;;;7.97;2.60;;;;;;;22.44;61.50;101045.63;6195860;23;20417;-78
2022/08/04 02:38:54;;;;;;;10.05;2.97;;;;;;;22.48;61.52;101052.34;6195574;23;20005;-78
2022/08/04 02:41:22;;;;;;;11.13;2.92;;;;;;;22.41;61.28;101040.59;6170577;23;20087;-78
2022/08/04 02:43:48;;;;;;;10.30;2.65;;;;;;;22.48;61.30;101046.09;6194592;23;20418;-78
2022/08/04 02:46:19;;;;;;;10.73;2.60;;;;;;;22.46;61.04;101040.03;6196058;23;20028;-78
2022/08/04 02:48:47;;;;;;;9.80;2.63;;;;;;;22.48;61.23;101030.72;6197567;23;20441;-78
2022/08/04 02:51:14;;;;;;;9.05;2.58;;;;;;;22.49;61.29;101031.53;6195897;23;20009;-78
2022/08/04 02:53:41;;;;;;;9.60;2.55;;;;;;;22.35;61.08;101003.50;6196511;23;20019;-78
2022/08/04 02:56:08;;;;;;;14.02;2.67;;;;;;;22.45;61.38;101014.00;6196502;23;20005;-78
2022/08/04 02:58:35;;;;;;;11.75;4.22;;;;;;;22.50;61.02;101023.22;6195983;23;20008;-79
2022/08/04 03:01:02;;;;;;;9.10;2.40;;;;;;;22.46;60.83;101019.22;6198076;23;20009;-78
2022/08/04 03:03:39;;;;;;;10.77;2.42;;;;;;;22.48;60.88;101016.31;6170909;23;20005;-77
2022/08/04 03:06:10;;;;;;;9.27;2.80;;;;;;;22.48;61.06;101019.88;6196948;23;20004;-78
2022/08/04 03:08:54;;;;;;;10.38;2.60;;;;;;;22.47;60.81;101018.19;6196312;23;20001;-78
2022/08/04 03:11:38;;;;;;;9.90;2.75;;;;;;;22.46;60.84;101026.50;6194392;23;20386;-79
2022/08/04 03:14:27;;;;;;;9.40;2.58;;;;;;;22.44;61.07;101025.88;6199353;23;19997;-77
2022/08/04 03:17:14;;;;;;;5.65;2.53;;;;;;;22.40;61.88;101041.66;6201271;23;20009;-77
2022/08/04 03:20:15;;;;;;;10.68;2.80;;;;;;;22.31;61.95;101054.44;6202027;23;20035;-77
2022/08/04 03:22:54;;;;;;;9.50;2.80;;;;;;;22.21;62.94;101066.56;6198644;23;20007;-76
2022/08/04 03:25:19;;;;;;;;;;;;;;;22.28;61.79;101065.66;6198993;23;20092;-76
2022/08/04 03:28:25;;;;;;;10.35;2.97;;;;;;;22.13;62.70;101053.97;6202567;23;19904;-76
2022/08/04 03:31:09;;;;;;;5.28;2.83;;;;;;;22.03;63.95;101050.72;6198949;23;20001;-76
2022/08/04 03:34:23;;;;;;;9.13;3.05;;;;;;;21.98;63.66;101057.53;6196125;23;20115;-75
2022/08/04 03:37:18;;;;;;;7.70;2.85;;;;;;;21.82;64.84;101049.63;6196184;23;20500;-76
2022/08/04 03:39:58;;;;;;;14.52;3.40;;;;;;;21.79;64.91;101039.19;6196192;23;20005;-76
2022/08/04 03:42:38;;;;;;;14.05;3.42;;;;;;;21.77;64.67;101043.94;6196528;23;20001;-77
2022/08/04 03:45:54;;;;;;;7.90;3.20;;;;;;;21.78;64.06;101049.16;6196624;23;20001;-77
2022/08/04 03:48:52;;;;;;;12.45;3.22;;;;;;;21.66;65.30;101057.91;6195880;23;20005;-77
2022/08/04 03:54:58;;;;;;;11.13;3.53;;;;;;;21.56;65.41;101071.69;6195364;23;20028;-78
2022/08/04 03:57:39;;;;;;;10.25;3.58;;;;;;;21.42;66.30;101066.06;6195263;23;20032;-77
2022/08/04 04:00:12;;;;;;;8.90;3.38;;;;;;;21.38;66.48;101061.19;6194312;23;20040;-76
2022/08/04 04:03:09;;;;;;;12.00;4.05;;;;;;;21.37;66.56;101073.03;6194004;23;20009;-78
2022/08/04 04:05:55;;;;;;;7.55;3.50;;;;;;;21.31;67.00;101077.28;6192720;23;20008;-77
2022/08/04 04:08:42;;;;;;;8.57;4.13;;;;;;;21.26;67.06;101077.00;6194227;23;20001;-77
2022/08/04 04:11:22;;;;;;;13.27;3.67;;;;;;;21.21;67.18;101080.25;6194843;23;20008;-77
2022/08/04 04:14:32;;;;;;;14.25;4.03;;;;;;;21.20;67.03;101075.88;6194063;23;20005;-77
2022/08/04 04:17:19;;;;;;;18.08;5.03;;;;;;;21.10;68.36;101071.72;6157232;23;20009;-77
2022/08/04 04:20:07;;;;;;;12.40;4.85;;;;;;;21.11;67.67;101071.56;6195004;23;20005;-76
2022/08/04 04:22:53;;;;;;;12.73;4.70;;;;;;;21.06;68.21;101068.56;6195880;23;20382;-76
2022/08/04 04:25:43;;;;;;;9.95;4.68;;;;;;;21.09;67.94;101072.78;6196055;23;20024;-77
2022/08/04 04:28:31;;;;;;;11.88;4.75;;;;;;;20.96;67.39;101054.47;6194314;23;20406;-77
2022/08/04 04:31:27;;;;;;;14.57;5.25;;;;;;;20.97;69.60;101070.50;6196684;23;20011;-76
2022/08/04 04:34:37;;;;;;;7.32;4.22;;;;;;;21.01;68.55;101079.06;6195552;23;20087;-76
2022/08/04 04:37:20;;;;;;;10.15;4.55;;;;;;;20.98;68.97;101074.84;6189531;23;20013;-76
2022/08/04 04:40:00;;;;;;;15.30;5.35;;;;;;;20.97;68.92;101078.59;6195870;23;20318;-77
2022/08/04 04:42:37;;;;;;;10.90;4.28;;;;;;;20.94;69.87;101076.25;6196040;23;20365;-78
2022/08/04 04:45:17;;;;;;;11.07;4.45;;;;;;;20.96;70.12;101078.78;6194837;23;20009;-77
2022/08/04 04:47:55;;;;;;;7.95;4.50;;;;;;;20.96;70.00;101066.09;6194742;23;20058;-77
2022/08/04 04:50:52;;;;;;;14.48;5.22;;;;;;;21.01;68.86;101077.19;6195715;23;20028;-76
2022/08/04 04:53:32;;;;;;;11.65;4.82;;;;;;;20.98;69.91;101072.16;6195060;23;20024;-77
2022/08/04 04:56:21;;;;;;;12.52;4.43;;;;;;;21.06;69.37;101082.06;6194355;23;20001;-76
2022/08/04 04:58:51;;;;;;;11.32;5.03;;;;;;;21.01;70.45;101088.00;6194090;23;20001;-76
2022/08/04 05:01:38;;;;;;;11.65;5.47;;;;;;;21.01;70.25;101085.31;6194606;23;20430;-76
2022/08/04 05:04:20;;;;;;;15.25;4.70;;;;;;;21.01;70.93;101084.47;6168085;23;20449;-77
2022/08/04 05:07:23;;;;;;;11.68;5.07;;;;;;;21.03;71.00;101091.38;6194617;23;20426;-76
2022/08/04 05:10:06;;;;;;;14.85;4.45;;;;;;;21.09;70.40;101080.88;6192741;23;20001;-76
2022/08/04 05:13:11;;;;;;;15.88;5.07;;;;;;;21.13;69.54;101083.00;6192710;23;20067;-76
2022/08/04 05:15:42;;;;;;;9.95;5.20;;;;;;;21.12;71.39;101077.81;6171385;23;20011;-77
2022/08/04 05:18:11;;;;;;;11.68;4.78;;;;;;;21.16;71.45;101092.63;6193180;23;20024;-77
2022/08/04 05:20:41;;;;;;;10.15;4.88;;;;;;;21.19;71.64;101093.09;6191738;23;20001;-77
2022/08/04 05:23:18;;;;;;;13.20;4.60;;;;;;;21.24;70.90;101088.00;6192115;23;20422;-77
2022/08/04 05:25:50;;;;;;;9.80;4.75;;;;;;;21.23;72.54;101085.47;6192040;23;20004;-77
2022/08/04 05:28:27;;;;;;;17.80;4.88;;;;;;;21.36;70.50;101079.47;6192524;23;20005;-77
2022/08/04 05:30:59;;;;;;;13.07;5.38;;;;;;;21.40;70.89;101078.91;6192301;23;20031;-78
2022/08/04 05:33:40;;;;;;;11.57;5.50;;;;;;;21.47;70.32;101070.06;6192210;23;20005;-78
2022/08/04 05:36:10;;;;;;;11.90;4.80;;;;;;;21.50;71.52;101069.72;6196961;23;20449;-78
2022/08/04 05:38:39;;;;;;;12.93;4.93;;;;;;;21.51;71.08;101064.13;6198280;23;20001;-78
2022/08/04 05:41:06;;;;;;;;;;;;;;;21.69;69.24;101063.78;6198240;23;20354;-77
2022/08/04 05:43:33;;;;;;;20.10;5.72;;;;;;;21.72;70.55;101062.59;6194959;23;20615;-77
2022/08/04 05:45:59;;;;;;;12.52;5.55;;;;;;;21.76;71.78;101067.41;6193818;23;20001;-78
2022/08/04 05:48:26;;;;;;;16.38;4.97;;;;;;;21.84;71.95;101069.19;6194236;23;20004;-77
2022/08/04 05:50:52;;;;;;;16.02;5.45;;;;;;;21.87;71.88;101073.41;6194256;23;20001;-77
2022/08/04 05:53:18;;;;;;;12.88;5.30;;;;;;;21.89;72.11;101077.59;6192482;23;20450;-77
2022/08/04 05:55:45;;;;;;;13.43;5.85;;;;;;;21.90;71.88;101078.41;6195456;23;20016;-78
2022/08/04 05:58:12;;;;;;;16.30;6.07;;;;;;;21.91;71.99;101072.81;6190644;23;20005;-79
2022/08/04 06:00:52;;;;;;;15.90;6.65;;;;;;;21.91;71.21;101070.13;6191637;23;20005;-77
2022/08/04 06:03:18;;;;;;;15.68;6.30;;;;;;;21.97;70.92;101074.78;6163839;23;20029;-77
2022/08/04 06:05:46;;;;;;;14.43;6.35;;;;;;;21.93;71.50;101070.78;6168855;23;20009;-76
2022/08/04 06:08:13;;;;;;;12.98;6.80;;;;;;;22.02;70.39;101078.81;6199668;23;20012;-76
2022/08/04 06:10:41;;;;;;;17.55;7.00;;;;;;;22.09;70.87;101085.13;6179494;23;20031;-77
2022/08/04 06:13:11;;;;;;;14.85;7.00;;;;;;;22.12;70.60;101074.78;6208292;23;20005;-77
2022/08/04 06:15:41;;;;;;;16.38;7.40;;;;;;;22.15;71.01;101079.81;6209863;23;20009;-77
2022/08/04 06:18:09;;;;;;;17.42;7.32;;;;;;;22.20;70.43;101076.56;6210299;23;20009;-81
2022/08/04 06:20:37;;;;;;;20.27;7.47;;;;;;;22.27;71.38;101082.06;6210326;23;20001;-78
2022/08/04 06:23:12;;;;;;;17.08;7.65;;;;;;;22.31;70.82;101081.50;6210485;23;20013;-77
2022/08/04 06:25:50;;;;;;;19.35;7.65;;;;;;;22.37;70.13;101062.84;6210815;23;20009;-77
2022/08/04 06:28:18;;;;;;;25.58;8.38;;;;;;;22.53;69.97;101086.94;6209496;23;20008;-77
2022/08/04 06:30:48;;;;;;;22.00;8.13;;;;;;;22.68;69.36;101084.19;6209467;23;20061;-77
2022/08/04 06:33:32;;;;;;;19.35;7.70;;;;;;;22.79;69.75;101091.00;6209172;23;20065;-77
2022/08/04 06:35:59;;;;;;;29.30;8.90;;;;;;;22.91;68.63;101082.19;6207993;23;20025;-77
2022/08/04 06:38:28;;;;;;;18.27;8.38;;;;;;;23.00;68.67;101074.75;6206408;23;20025;-77
2022/08/04 06:40:56;;;;;;;21.42;8.15;;;;;;;23.21;67.96;101086.63;6182029;23;20008;-77
2022/08/04 06:43:23;;;;;;;23.80;8.55;;;;;;;23.50;67.33;101104.59;6180900;23;20032;-77
2022/08/04 06:45:49;;;;;;;19.27;8.80;;;;;;;23.75;66.97;101099.56;6206077;23;20004;-77
2022/08/04 06:48:20;;;;;;;19.30;8.25;;;;;;;24.05;66.33;101098.50;6205226;23;20040;-78
2022/08/04 06:50:50;;;;;;;16.48;8.25;;;;;;;24.22;65.88;101099.03;6174828;23;20005;-78
2022/08/04 06:53:16;;;;;;;19.08;7.95;;;;;;;24.41;65.12;101100.97;6206431;23;20069;-78
2022/08/04 06:55:43;;;;;;;14.70;7.13;;;;;;;24.56;65.19;101106.28;6204529;23;20012;-77
2022/08/04 06:58:10;;;;;;;24.88;8.20;;;;;;;24.64;64.47;101097.13;6204301;23;20007;-77
2022/08/04 07:00:46;;;;;;;19.45;8.40;;;;;;;24.74;63.83;101106.53;6205310;23;20056;-77
2022/08/04 07:03:12;;;;;;;15.13;7.65;;;;;;;24.77;63.59;101097.16;6173060;23;20005;-77
2022/08/04 07:05:39;;;;;;;17.40;7.38;;;;;;;24.86;62.58;101106.78;6195632;23;20019;-76
2022/08/04 07:08:05;;;;;;;15.10;7.75;;;;;;;24.92;64.01;101097.81;6199131;23;20121;-75
2022/08/04 07:10:31;;;;;;;17.88;8.07;;;;;;;25.02;63.34;101094.69;6205320;23;20005;-77
2022/08/04 07:12:59;;;;;;;14.73;7.97;;;;;;;25.05;63.13;101097.00;6206910;23;20031;-77
2022/08/04 07:15:25;;;;;;;17.75;7.55;;;;;;;25.32;62.77;101101.66;6208988;23;20009;-77
2022/08/04 07:17:52;;;;;;;12.27;7.38;;;;;;;25.41;60.96;101095.75;6205830;23;20079;-77
2022/08/04 07:20:18;;;;;;;14.82;7.85;;;;;;;25.43;60.99;101101.84;6208694;23;20054;-79
2022/08/04 07:22:46;;;;;;;19.52;6.93;;;;;;;25.55;61.40;101107.50;6207582;23;20005;-77
2022/08/04 07:25:14;;;;;;;18.30;6.80;;;;;;;25.79;61.11;101110.59;6182161;23;20009;-78
2022/08/04 07:27:41;;;;;;;9.95;6.38;;;;;;;26.05;60.74;101109.72;6207465;23;20011;-77
2022/08/04 07:30:07;;;;;;;13.13;6.57;;;;;;;26.10;60.07;101109.94;6203994;23;20005;-78
2022/08/04 07:32:34;;;;;;;10.68;7.53;;;;;;;26.37;59.25;101121.53;6203211;23;20005;-78
2022/08/04 07:35:01;;;;;;;9.52;6.93;;;;;;;26.65;58.66;101112.25;6207172;23;20008;-77
2022/08/04 07:37:26;;;;;;;14.20;7.07;;;;;;;27.01;57.43;101116.19;6180286;23;20005;-78
2022/08/04 07:39:52;;;;;;;13.27;6.38;;;;;;;27.34;56.86;101109.69;6208132;23;20001;-77
2022/08/04 07:42:18;;;;;;;12.02;6.47;;;;;;;27.53;55.80;101117.94;6182082;23;20009;-78
2022/08/04 07:44:45;;;;;;;9.63;5.38;;;;;;;27.86;54.63;101121.19;6205637;23;20033;-78
2022/08/04 07:47:12;;;;;;;9.52;5.15;;;;;;;28.05;54.28;101110.31;6199044;23;20009;-79
2022/08/04 07:49:39;;;;;;;12.18;5.47;;;;;;;28.37;53.47;101108.22;6203387;23;20008;-77
2022/08/04 07:52:05;;;;;;;12.30;5.97;;;;;;;28.40;53.27;101105.03;6199388;23;20009;-77
2022/08/04 07:54:32;;;;;;;11.15;5.07;;;;;;;28.61;52.80;101111.09;6202256;23;20008;-77
2022/08/04 07:56:58;;;;;;;11.02;5.25;;;;;;;29.10;51.53;101122.78;6198615;23;20020;-81
2022/08/04 07:59:23;;;;;;;12.13;5.53;;;;;;;29.33;51.04;101118.47;6211648;23;20008;-78
2022/08/04 08:01:49;;;;;;;9.82;5.25;;;;;;;29.45;50.11;101115.75;6210293;23;20031;-78
2022/08/04 08:04:15;;;;;;;16.52;5.68;;;;;;;29.75;49.73;101125.75;6209837;23;20040;-77
2022/08/04 08:06:40;;;;;;;11.80;5.00;;;;;;;29.99;49.62;101132.03;6184859;23;20001;-77
2022/08/04 08:09:20;;;;;;;9.80;4.43;;;;;;;30.26;50.25;101138.69;6201991;23;20005;-77
2022/08/04 08:11:47;;;;;;;9.35;4.75;;;;;;;30.38;47.72;101129.63;6177321;23;20092;-78
2022/08/04 08:14:12;;;;;;;9.13;4.25;;;;;;;30.49;47.89;101136.13;6201222;23;20036;-78
2022/08/04 08:16:38;;;;;;;15.05;4.55;;;;;;;30.75;47.18;101131.97;6202136;23;20020;-78
2022/08/04 08:19:06;;;;;;;10.38;4.10;;;;;;;31.02;46.54;101134.16;6199314;23;20393;-78
2022/08/04 08:21:32;;;;;;;9.52;4.13;;;;;;;31.17;44.73;101127.00;6206499;23;20009;-78
2022/08/04 08:23:58;;;;;;;11.07;4.10;;;;;;;31.24;44.65;101140.56;6206084;23;20032;-79
2022/08/04 08:26:23;;;;;;;8.13;3.03;;;;;;;31.19;43.65;101124.00;6211927;23;19993;-77
2022/08/04 08:28:49;;;;;;;11.35;3.10;;;;;;;31.23;43.36;101127.94;6212385;23;20009;-78
2022/08/04 08:31:14;;;;;;;7.07;3.33;;;;;;;31.25;43.91;101133.16;6210657;23;20005;-78
2022/08/04 08:33:40;;;;;;;8.13;2.75;;;;;;;30.95;43.48;101139.78;6210716;23;20020;-78
2022/08/04 08:36:15;;;;;;;10.43;2.90;;;;;;;30.98;44.48;101140.13;6208921;23;20006;-80
2022/08/04 08:39:05;;;;;;;8.80;3.35;;;;;;;31.18;45.05;101155.28;6208055;23;20005;-78
2022/08/04 08:42:08;;;;;;;4.03;2.13;;;;;;;31.41;43.61;101150.69;6208817;23;20001;-78
2022/08/04 08:44:52;;;;;;;5.28;1.80;;;;;;;31.26;42.59;101157.63;6209167;23;20005;-78
2022/08/04 08:47:51;;;;;;;7.82;2.65;;;;;;;31.40;42.98;101157.28;6212475;23;20005;-79
2022/08/04 08:50:42;;;;;;;11.40;2.65;;;;;;;31.45;42.86;101160.94;6211712;23;20020;-78
2022/08/04 08:53:25;;;;;;;5.50;2.13;;;;;;;31.25;42.21;101168.84;6212356;23;20003;-79
2022/08/04 08:56:06;;;;;;;8.43;2.40;;;;;;;31.33;42.69;101163.78;6211732;23;19992;-78
2022/08/04 08:58:44;;;;;;;10.48;2.55;;;;;;;31.33;42.42;101163.78;6212405;23;20001;-80
2022/08/04 09:01:24;;;;;;;5.93;2.13;;;;;;;31.61;41.86;101163.97;6212124;23;20012;-79
2022/08/04 09:04:19;;;;;;;7.97;2.13;;;;;;;31.86;43.41;101160.75;6211586;23;20008;-79
2022/08/04 09:06:52;;;;;;;9.43;2.70;;;;;;;31.79;42.14;101166.44;6211925;23;20001;-81
2022/08/04 09:09:18;;;;;;;6.97;2.30;;;;;;;31.72;40.26;101172.09;6211963;23;20009;-80
2022/08/04 09:11:54;;;;;;;6.40;2.08;;;;;;;31.69;41.52;101169.88;6211804;23;20017;-79
2022/08/04 09:14:27;;;;;;;7.32;2.05;;;;;;;31.59;41.40;101163.38;6212781;23;19990;-80
2022/08/04 09:17:01;;;;;;;5.55;1.88;;;;;;;31.75;42.30;101178.19;6211176;23;20067;-79
2022/08/04 09:19:31;;;;;;;8.77;2.40;;;;;;;31.58;42.71;101168.06;6196405;23;20001;-79
2022/08/04 09:22:02;;;;;;;4.20;1.65;;;;;;;31.43;41.19;101170.53;6190756;23;20092;-80
2022/08/04 09:24:49;;;;;;;4.78;2.05;;;;;;;31.48;40.34;101185.16;6189473;23;20454;-80
2022/08/04 09:27:18;;;;;;;8.30;2.03;;;;;;;31.39;40.71;101181.13;6188151;23;20009;-79
2022/08/04 09:29:47;;;;;;;8.65;2.00;;;;;;;31.25;40.59;101188.06;6162594;23;20406;-79
2022/08/04 09:32:37;;;;;;;11.38;2.10;;;;;;;31.51;42.30;101187.44;6190331;23;20081;-79
2022/08/04 09:35:25;;;;;;;8.38;1.80;;;;;;;31.39;42.05;101183.88;6198301;23;20001;-79
2022/08/04 09:38:10;;;;;;;7.35;1.58;;;;;;;31.24;41.67;101183.63;6195177;23;20032;-78
2022/08/04 09:40:50;;;;;;;6.60;1.95;;;;;;;31.01;41.68;101196.41;6171668;23;20315;-78
2022/08/04 09:43:40;;;;;;;9.40;2.33;;;;;;;30.92;41.65;101203.31;6192249;23;20009;-79
2022/08/04 09:46:14;;;;;;;5.85;1.77;;;;;;;30.82;42.88;101212.19;6195109;23;20009;-79
2022/08/04 09:48:46;;;;;;;10.65;2.38;;;;;;;30.77;41.85;101212.91;6196760;23;20009;-79
2022/08/04 09:51:52;;;;;;;10.13;2.08;;;;;;;30.79;42.28;101204.44;6200014;23;20001;-79
2022/08/04 09:54:32;;;;;;;9.75;2.10;;;;;;;30.61;41.81;101219.16;6169982;23;20390;-79
2022/08/04 09:57:15;;;;;;;11.68;2.22;;;;;;;30.58;41.81;101222.41;6141551;23;20009;-79
2022/08/04 09:59:50;;;;;;;11.70;2.63;;;;;;;30.32;43.87;101224.56;6170715;23;20422;-78
2022/08/04 10:02:17;;;;;;;9.63;2.33;;;;;;;30.00;42.67;101233.16;6177053;23;20423;-79
2022/08/04 10:04:44;;;;;;;9.68;2.60;;;;;;;29.80;44.05;101228.03;6174556;23;20023;-78
2022/08/04 10:07:38;;;;;;;7.38;2.40;;;;;;;29.77;43.78;101236.69;6172876;23;20087;-77
2022/08/04 10:10:28;;;;;;;11.18;2.53;;;;;;;29.59;44.61;101228.56;6116473;23;20020;-78
2022/08/04 10:12:53;;;;;;;9.27;2.67;;;;;;;29.54;45.90;101218.31;6170050;23;20338;-78
2022/08/04 10:15:40;;;;;;;7.63;2.33;;;;;;;29.26;45.66;101238.94;6173728;23;20072;-77
2022/08/04 10:18:35;;;;;;;10.73;2.53;;;;;;;29.26;46.27;101285.47;6176262;23;20029;-76
2022/08/04 10:21:11;;;;;;;8.05;2.50;;;;;;;28.96;47.07;101313.56;6147691;23;20014;-77
2022/08/04 10:23:45;;;;;;;7.63;2.50;;;;;;;28.77;48.88;101320.94;6178375;23;20009;-77
2022/08/04 10:26:17;;;;;;;10.43;2.60;;;;;;;28.46;50.75;101300.00;6179050;23;20001;-77
2022/08/04 10:28:54;;;;;;;11.95;3.03;;;;;;;28.21;52.24;101305.47;6172676;23;20450;-78
2022/08/04 10:31:26;;;;;;;12.27;3.20;;;;;;;27.93;55.64;101306.78;6169171;23;20002;-78
2022/08/04 10:34:01;;;;;;;8.00;2.42;;;;;;;27.66;56.15;101278.81;6167823;23;20016;-78
2022/08/04 10:36:34;;;;;;;11.80;2.95;;;;;;;27.54;59.94;101283.31;6168166;23;20080;-79
2022/08/04 10:39:11;;;;;;;8.50;2.63;;;;;;;27.58;57.30;101259.97;6168143;23;20017;-79
2022/08/04 10:42:21;;;;;;;10.50;2.95;;;;;;;27.70;55.57;101244.56;6171620;23;20009;-80
2022/08/04 10:45:09;;;;;;;9.68;2.85;;;;;;;27.52;57.14;101220.78;6030954;23;20007;-78
2022/08/04 10:47:43;;;;;;;12.20;3.30;;;;;;;27.37;58.87;101221.09;6054608;23;20012;-79
2022/08/04 10:50:11;;;;;;;7.70;2.90;;;;;;;27.16;60.95;101224.13;6142637;23;20009;-80
2022/08/04 10:52:43;;;;;;;12.67;3.57;;;;;;;27.09;61.57;101238.63;6187242;23;20016;-78
2022/08/04 10:55:32;;;;;;;12.70;3.20;;;;;;;27.16;60.67;101232.31;6205907;23;20240;-78
2022/08/04 10:58:04;;;;;;;8.65;3.55;;;;;;;27.05;61.61;101231.13;6206673;23;20001;-79
2022/08/04 11:00:32;;;;;;;13.85;3.40;;;;;;;26.96;63.78;101246.88;6182164;23;20016;-81
2022/08/04 11:03:14;;;;;;;8.55;3.05;;;;;;;27.08;62.85;101257.91;6209636;23;20057;-78
2022/08/04 11:05:56;;;;;;;9.20;3.25;;;;;;;26.89;62.56;101256.97;6212030;23;20005;-81
2022/08/04 11:08:32;;;;;;;10.45;3.72;;;;;;;26.77;64.43;101254.91;6213283;23;19997;-80
2022/08/04 11:11:08;;;;;;;10.20;3.40;;;;;;;26.63;64.17;101238.78;6214605;23;19993;-78
2022/08/04 11:14:04;;;;;;;8.45;3.25;;;;;;;26.72;62.46;101238.38;6214251;23;20000;-79
2022/08/04 11:16:43;;;;;;;7.53;3.03;;;;;;;26.52;63.13;101222.06;6210710;23;20032;-79
2022/08/04 11:19:22;;;;;;;7.45;3.10;;;;;;;26.37;64.10;101232.38;6213573;23;20005;-78
2022/08/04 11:22:07;;;;;;;6.80;3.42;;;;;;;26.38;64.98;101231.34;6201280;23;20101;-78
2022/08/04 11:24:35;;;;;;;7.32;3.15;;;;;;;26.34;66.00;101233.63;6194030;23;20013;-78
2022/08/04 11:27:27;;;;;;;9.80;3.83;;;;;;;26.30;66.74;101221.50;6192590;23;20467;-78
2022/08/04 11:30:03;;;;;;;8.13;3.90;;;;;;;26.48;64.96;101223.56;6127306;23;20008;-77
2022/08/04 11:33:00;;;;;;;10.32;4.45;;;;;;;26.77;65.27;101238.56;6210956;23;20001;-78
2022/08/04 11:35:45;;;;;;;10.50;4.40;;;;;;;27.34;63.72;101229.69;6207955;23;20031;-79
2022/08/04 11:38:31;;;;;;;8.60;4.35;;;;;;;27.61;61.98;101243.16;6181836;23;20005;-78
2022/08/04 11:41:00;;;;;;;8.32;4.40;;;;;;;27.82;60.53;101234.59;6208382;23;19985;-77
2022/08/04 11:43:38;;;;;;;7.20;3.60;;;;;;;28.20;59.32;101239.13;6207347;23;20048;-77
2022/08/04 11:46:24;;;;;;;;;;;;;;;28.50;58.73;101256.69;6206654;23;20080;-78
2022/08/04 11:49:02;;;;;;;6.63;2.70;;;;;;;28.68;55.00;101247.66;6205642;23;19920;-78
2022/08/04 11:51:27;;;;;;;6.40;2.83;;;;;;;28.88;53.74;101237.31;6206935;23;20056;-78
2022/08/04 11:53:54;;;;;;;7.65;2.65;;;;;;;28.98;55.00;101232.13;6211109;23;20028;-77
2022/08/04 11:56:20;;;;;;;8.63;2.92;;;;;;;28.86;53.38;101242.19;6212125;23;19993;-80
2022/08/04 11:58:46;;;;;;;6.80;2.42;;;;;;;28.77;54.29;101241.66;6213476;23;20000;-81
2022/08/04 12:01:26;;;;;;;8.43;3.00;;;;;;;28.85;54.92;101237.78;6214239;23;19993;-81
2022/08/04 12:04:02;;;;;;;8.73;2.85;;;;;;;29.02;56.15;101243.44;6213920;23;19989;-78
2022/08/04 12:06:55;;;;;;;4.72;2.72;;;;;;;29.33;54.26;101249.78;6213152;23;20004;-78
2022/08/04 12:09:51;;;;;;;8.30;3.00;;;;;;;29.58;53.04;101246.03;6207661;23;20008;-81
2022/08/04 12:12:24;;;;;;;8.73;2.55;;;;;;;29.58;53.87;101241.41;6187664;23;20015;-79